Weather at Chomutov Airfield

Public forecast

Using degrees Celsius for public forecast. Weather courtesy of forecast.io.

Closest aviation weather report (METAR) to Chomutov Airfield

Closest report is Karlovy Vary International Airport, 26.5 nm (49.1 km) SW. Retrieved 2020/10/01 07:30 UTC (14 minutes ago):

LKKV 010730Z VRB01KT CAVOK 10/09 Q1008

Closest aviation forecast (TAF) to Chomutov Airfield

Closest forecast is Karlovy Vary International Airport, 26.5 nm (49.1 km) SW. Retrieved 2020/10/01 06:16 UTC (1 hour ago):

TAF LKKV 010500Z 0106/0212 VRB02KT CAVOK TEMPO 0106/0108 4000 BR NSC PROB30 TEMPO 0106/0108 2000 BR BKN010 BECMG 0108/0110 34006KT TEMPO 0202/0206 2500 BR BKN007